sensor_id;sensor_type;location;lat;lon;timestamp;pressure;altitude;pressure_sealevel;temperature;humidity
59272;BME280;45043;51.068;7.026;2023-04-09T00:00:15;101350.25;;;5.92;57.89
59272;BME280;45043;51.068;7.026;2023-04-09T00:03:17;101356.41;;;5.83;57.88
59272;BME280;45043;51.068;7.026;2023-04-09T00:06:17;101352.50;;;5.77;58.18
59272;BME280;45043;51.068;7.026;2023-04-09T00:09:17;101351.31;;;5.72;57.99
59272;BME280;45043;51.068;7.026;2023-04-09T00:12:18;101350.88;;;5.66;58.31
59272;BME280;45043;51.068;7.026;2023-04-09T00:15:18;101346.47;;;5.57;58.33
59272;BME280;45043;51.068;7.026;2023-04-09T00:18:18;101347.16;;;5.59;58.62
59272;BME280;45043;51.068;7.026;2023-04-09T00:21:19;101342.59;;;5.52;58.61
59272;BME280;45043;51.068;7.026;2023-04-09T00:24:20;101343.13;;;5.55;58.31
59272;BME280;45043;51.068;7.026;2023-04-09T00:27:20;101345.94;;;5.54;58.58
59272;BME280;45043;51.068;7.026;2023-04-09T00:30:21;101349.28;;;5.46;58.69
59272;BME280;45043;51.068;7.026;2023-04-09T00:33:21;101333.47;;;5.36;58.62
59272;BME280;45043;51.068;7.026;2023-04-09T00:36:22;101334.00;;;5.30;58.47
59272;BME280;45043;51.068;7.026;2023-04-09T00:39:22;101338.34;;;5.31;59.02
59272;BME280;45043;51.068;7.026;2023-04-09T00:42:23;101340.97;;;5.31;58.63
59272;BME280;45043;51.068;7.026;2023-04-09T00:45:23;101338.16;;;5.23;58.87
59272;BME280;45043;51.068;7.026;2023-04-09T00:48:24;101334.00;;;5.21;59.13
59272;BME280;45043;51.068;7.026;2023-04-09T00:51:25;101337.06;;;5.16;59.28
59272;BME280;45043;51.068;7.026;2023-04-09T00:54:26;101333.72;;;5.14;59.03
59272;BME280;45043;51.068;7.026;2023-04-09T00:57:26;101340.66;;;5.15;59.40
59272;BME280;45043;51.068;7.026;2023-04-09T01:00:28;101333.19;;;5.10;59.32
59272;BME280;45043;51.068;7.026;2023-04-09T01:03:28;101337.91;;;5.07;59.55
59272;BME280;45043;51.068;7.026;2023-04-09T01:06:50;101339.16;;;5.03;59.19
59272;BME280;45043;51.068;7.026;2023-04-09T01:16:46;101336.22;;;4.96;59.59
59272;BME280;45043;51.068;7.026;2023-04-09T01:26:57;101333.47;;;4.98;59.50
59272;BME280;45043;51.068;7.026;2023-04-09T01:30:08;101324.03;;;4.95;59.38
59272;BME280;45043;51.068;7.026;2023-04-09T01:33:10;101337.06;;;4.97;59.26
59272;BME280;45043;51.068;7.026;2023-04-09T01:36:12;101339.00;;;4.94;59.42
59272;BME280;45043;51.068;7.026;2023-04-09T01:39:13;101336.50;;;4.93;59.51
59272;BME280;45043;51.068;7.026;2023-04-09T01:42:14;101327.09;;;4.90;59.71
59272;BME280;45043;51.068;7.026;2023-04-09T01:45:15;101332.63;;;4.87;59.53
59272;BME280;45043;51.068;7.026;2023-04-09T01:48:16;101326.94;;;4.82;59.74
59272;BME280;45043;51.068;7.026;2023-04-09T01:51:17;101325.53;;;4.78;59.84
59272;BME280;45043;51.068;7.026;2023-04-09T01:54:17;101318.50;;;4.69;59.58
59272;BME280;45043;51.068;7.026;2023-04-09T01:57:18;101334.97;;;4.71;59.63
59272;BME280;45043;51.068;7.026;2023-04-09T02:00:18;101334.13;;;4.70;59.81
59272;BME280;45043;51.068;7.026;2023-04-09T02:03:23;101330.25;;;4.65;59.85
59272;BME280;45043;51.068;7.026;2023-04-09T02:06:43;101333.56;;;4.67;59.49
59272;BME280;45043;51.068;7.026;2023-04-09T02:09:46;101324.03;;;4.66;59.81
59272;BME280;45043;51.068;7.026;2023-04-09T02:12:50;101326.50;;;4.67;59.16
59272;BME280;45043;51.068;7.026;2023-04-09T02:15:51;101325.94;;;4.64;59.20
59272;BME280;45043;51.068;7.026;2023-04-09T02:18:54;101324.16;;;4.64;59.46
59272;BME280;45043;51.068;7.026;2023-04-09T02:21:56;101328.16;;;4.59;59.86
59272;BME280;45043;51.068;7.026;2023-04-09T02:24:56;101320.13;;;4.51;59.42
59272;BME280;45043;51.068;7.026;2023-04-09T02:27:57;101317.91;;;4.56;59.61
59272;BME280;45043;51.068;7.026;2023-04-09T02:30:57;101320.13;;;4.51;59.72
59272;BME280;45043;51.068;7.026;2023-04-09T02:33:58;101320.81;;;4.53;59.78
59272;BME280;45043;51.068;7.026;2023-04-09T02:36:58;101317.50;;;4.51;59.46
59272;BME280;45043;51.068;7.026;2023-04-09T02:39:59;101313.47;;;4.47;59.36
59272;BME280;45043;51.068;7.026;2023-04-09T02:42:59;101314.72;;;4.42;58.99
59272;BME280;45043;51.068;7.026;2023-04-09T02:45:59;101307.88;;;4.30;59.79
59272;BME280;45043;51.068;7.026;2023-04-09T02:49:01;101315.22;;;4.27;59.68
59272;BME280;45043;51.068;7.026;2023-04-09T02:52:02;101312.16;;;4.21;59.84
59272;BME280;45043;51.068;7.026;2023-04-09T02:55:02;101303.03;;;4.16;59.68
59272;BME280;45043;51.068;7.026;2023-04-09T02:58:03;101301.19;;;4.07;59.38
59272;BME280;45043;51.068;7.026;2023-04-09T03:01:03;101309.78;;;4.09;60.02
59272;BME280;45043;51.068;7.026;2023-04-09T03:04:04;101297.84;;;4.05;60.16
59272;BME280;45043;51.068;7.026;2023-04-09T03:07:04;101302.41;;;4.03;59.74
59272;BME280;45043;51.068;7.026;2023-04-09T03:10:05;101296.34;;;4.02;59.78
59272;BME280;45043;51.068;7.026;2023-04-09T03:13:05;101301.28;;;3.95;59.99
59272;BME280;45043;51.068;7.026;2023-04-09T03:16:06;101296.28;;;3.92;59.87
59272;BME280;45043;51.068;7.026;2023-04-09T03:19:07;101301.13;;;3.87;60.07
59272;BME280;45043;51.068;7.026;2023-04-09T03:22:10;101291.00;;;3.83;60.37
59272;BME280;45043;51.068;7.026;2023-04-09T03:25:11;101293.06;;;3.79;60.05
59272;BME280;45043;51.068;7.026;2023-04-09T03:28:11;101288.06;;;3.76;59.91
59272;BME280;45043;51.068;7.026;2023-04-09T03:31:17;101289.31;;;3.72;59.86
59272;BME280;45043;51.068;7.026;2023-04-09T03:34:19;101286.22;;;3.67;60.23
59272;BME280;45043;51.068;7.026;2023-04-09T03:37:24;101284.13;;;3.61;59.79
59272;BME280;45043;51.068;7.026;2023-04-09T03:40:26;101285.34;;;3.57;60.08
59272;BME280;45043;51.068;7.026;2023-04-09T03:43:26;101276.34;;;3.50;60.16
59272;BME280;45043;51.068;7.026;2023-04-09T03:46:27;101286.13;;;3.47;59.88
59272;BME280;45043;51.068;7.026;2023-04-09T03:49:34;101279.47;;;3.43;59.96
59272;BME280;45043;51.068;7.026;2023-04-09T03:52:42;101273.44;;;3.32;59.73
59272;BME280;45043;51.068;7.026;2023-04-09T03:55:43;101280.84;;;3.27;59.92
59272;BME280;45043;51.068;7.026;2023-04-09T03:58:51;101280.81;;;3.17;59.77
59272;BME280;45043;51.068;7.026;2023-04-09T04:01:55;101277.72;;;3.12;59.77
59272;BME280;45043;51.068;7.026;2023-04-09T04:04:57;101278.00;;;3.09;59.92
59272;BME280;45043;51.068;7.026;2023-04-09T04:08:02;101282.66;;;3.05;59.98
59272;BME280;45043;51.068;7.026;2023-04-09T04:11:03;101287.59;;;2.98;59.54
59272;BME280;45043;51.068;7.026;2023-04-09T04:14:05;101282.13;;;2.90;59.56
59272;BME280;45043;51.068;7.026;2023-04-09T04:17:07;101288.06;;;2.92;60.22
59272;BME280;45043;51.068;7.026;2023-04-09T04:20:08;101282.81;;;2.92;59.29
59272;BME280;45043;51.068;7.026;2023-04-09T04:23:20;101279.75;;;2.87;59.72
59272;BME280;45043;51.068;7.026;2023-04-09T04:26:30;101276.41;;;2.85;59.66
59272;BME280;45043;51.068;7.026;2023-04-09T04:29:31;101280.59;;;2.88;59.00
59272;BME280;45043;51.068;7.026;2023-04-09T04:32:34;101282.25;;;2.89;59.07
59272;BME280;45043;51.068;7.026;2023-04-09T04:35:39;101269.38;;;2.86;59.18
59272;BME280;45043;51.068;7.026;2023-04-09T04:38:44;101271.16;;;2.85;59.15
59272;BME280;45043;51.068;7.026;2023-04-09T04:41:58;101278.34;;;2.83;58.92
59272;BME280;45043;51.068;7.026;2023-04-09T04:45:01;101273.09;;;2.83;58.84
59272;BME280;45043;51.068;7.026;2023-04-09T04:48:22;101279.56;;;2.79;58.53
59272;BME280;45043;51.068;7.026;2023-04-09T04:51:22;101271.41;;;2.82;58.07
59272;BME280;45043;51.068;7.026;2023-04-09T04:54:43;101277.25;;;2.86;58.32
59272;BME280;45043;51.068;7.026;2023-04-09T04:57:49;101277.81;;;2.89;58.28
59272;BME280;45043;51.068;7.026;2023-04-09T05:00:51;101273.53;;;2.88;57.77
59272;BME280;45043;51.068;7.026;2023-04-09T05:03:52;101278.69;;;2.90;58.34
59272;BME280;45043;51.068;7.026;2023-04-09T05:07:00;101276.50;;;2.95;57.69
59272;BME280;45043;51.068;7.026;2023-04-09T05:10:01;101280.41;;;3.00;57.58
59272;BME280;45043;51.068;7.026;2023-04-09T05:13:08;101275.16;;;3.00;57.46
59272;BME280;45043;51.068;7.026;2023-04-09T05:16:17;101278.34;;;3.04;56.71
59272;BME280;45043;51.068;7.026;2023-04-09T05:19:22;101283.25;;;3.09;57.43
59272;BME280;45043;51.068;7.026;2023-04-09T05:22:29;101285.47;;;3.13;56.60
59272;BME280;45043;51.068;7.026;2023-04-09T05:25:30;101286.06;;;3.17;56.72
59272;BME280;45043;51.068;7.026;2023-04-09T05:28:31;101284.69;;;3.22;56.55
59272;BME280;45043;51.068;7.026;2023-04-09T05:31:45;101291.94;;;3.30;56.28
59272;BME280;45043;51.068;7.026;2023-04-09T05:34:55;101292.66;;;3.32;56.70
59272;BME280;45043;51.068;7.026;2023-04-09T05:37:57;101305.31;;;3.38;56.15
59272;BME280;45043;51.068;7.026;2023-04-09T05:40:58;101299.97;;;3.50;56.18
59272;BME280;45043;51.068;7.026;2023-04-09T05:43:59;101296.56;;;3.59;55.53
59272;BME280;45043;51.068;7.026;2023-04-09T05:47:00;101287.44;;;3.63;55.72
59272;BME280;45043;51.068;7.026;2023-04-09T05:50:07;101300.50;;;3.74;56.04
59272;BME280;45043;51.068;7.026;2023-04-09T05:53:08;101296.53;;;3.80;55.22
59272;BME280;45043;51.068;7.026;2023-04-09T05:56:14;101303.59;;;3.89;54.96
59272;BME280;45043;51.068;7.026;2023-04-09T05:59:21;101302.25;;;3.94;55.14
59272;BME280;45043;51.068;7.026;2023-04-09T06:02:22;101292.88;;;4.02;54.95
59272;BME280;45043;51.068;7.026;2023-04-09T06:05:24;101295.25;;;4.14;54.88
59272;BME280;45043;51.068;7.026;2023-04-09T06:08:25;101288.78;;;4.28;56.16
59272;BME280;45043;51.068;7.026;2023-04-09T06:11:25;101289.66;;;4.58;55.98
59272;BME280;45043;51.068;7.026;2023-04-09T06:14:26;101292.44;;;4.85;55.65
59272;BME280;45043;51.068;7.026;2023-04-09T06:17:27;101296.31;;;5.10;55.07
59272;BME280;45043;51.068;7.026;2023-04-09T06:20:28;101294.75;;;5.37;55.07
59272;BME280;45043;51.068;7.026;2023-04-09T06:23:28;101300.84;;;5.57;53.86
59272;BME280;45043;51.068;7.026;2023-04-09T06:26:29;101298.03;;;5.68;53.71
59272;BME280;45043;51.068;7.026;2023-04-09T06:29:30;101296.28;;;5.86;53.47
59272;BME280;45043;51.068;7.026;2023-04-09T06:32:30;101301.31;;;6.07;53.13
59272;BME280;45043;51.068;7.026;2023-04-09T06:35:31;101301.81;;;6.21;52.38
59272;BME280;45043;51.068;7.026;2023-04-09T06:38:31;101298.44;;;6.28;52.43
59272;BME280;45043;51.068;7.026;2023-04-09T06:41:32;101303.28;;;6.51;52.30
59272;BME280;45043;51.068;7.026;2023-04-09T06:44:34;101304.19;;;6.77;52.41
59272;BME280;45043;51.068;7.026;2023-04-09T06:47:34;101308.44;;;7.06;52.47
59272;BME280;45043;51.068;7.026;2023-04-09T06:50:35;101306.31;;;7.27;52.04
59272;BME280;45043;51.068;7.026;2023-04-09T06:53:36;101311.09;;;7.50;50.80
59272;BME280;45043;51.068;7.026;2023-04-09T06:56:37;101306.50;;;7.60;51.86
59272;BME280;45043;51.068;7.026;2023-04-09T06:59:37;101306.56;;;7.68;51.08
59272;BME280;45043;51.068;7.026;2023-04-09T07:02:38;101314.41;;;7.86;50.77
59272;BME280;45043;51.068;7.026;2023-04-09T07:05:38;101312.78;;;7.93;50.41
59272;BME280;45043;51.068;7.026;2023-04-09T07:08:38;101320.00;;;8.09;49.43
59272;BME280;45043;51.068;7.026;2023-04-09T07:11:39;101313.22;;;8.23;49.32
59272;BME280;45043;51.068;7.026;2023-04-09T07:14:39;101318.44;;;8.32;48.13
59272;BME280;45043;51.068;7.026;2023-04-09T07:17:40;101328.03;;;8.34;48.81
59272;BME280;45043;51.068;7.026;2023-04-09T07:20:40;101325.75;;;8.47;48.71
59272;BME280;45043;51.068;7.026;2023-04-09T07:23:41;101322.13;;;8.48;47.83
59272;BME280;45043;51.068;7.026;2023-04-09T07:26:41;101326.41;;;8.49;47.67
59272;BME280;45043;51.068;7.026;2023-04-09T07:29:43;101328.56;;;8.45;47.06
59272;BME280;45043;51.068;7.026;2023-04-09T07:32:44;101332.31;;;8.26;47.12
59272;BME280;45043;51.068;7.026;2023-04-09T07:35:45;101333.84;;;8.03;47.79
59272;BME280;45043;51.068;7.026;2023-04-09T07:38:46;101326.44;;;8.15;47.46
59272;BME280;45043;51.068;7.026;2023-04-09T07:41:46;101324.06;;;8.29;46.96
59272;BME280;45043;51.068;7.026;2023-04-09T07:44:47;101318.78;;;8.38;46.82
59272;BME280;45043;51.068;7.026;2023-04-09T07:47:48;101329.38;;;8.46;46.39
59272;BME280;45043;51.068;7.026;2023-04-09T07:50:48;101310.53;;;8.49;45.81
59272;BME280;45043;51.068;7.026;2023-04-09T07:53:49;101329.84;;;8.33;46.15
59272;BME280;45043;51.068;7.026;2023-04-09T07:56:50;101332.88;;;8.46;45.67
59272;BME280;45043;51.068;7.026;2023-04-09T07:59:52;101331.06;;;8.47;45.58
59272;BME280;45043;51.068;7.026;2023-04-09T08:02:52;101336.69;;;8.44;45.55
59272;BME280;45043;51.068;7.026;2023-04-09T08:05:53;101339.16;;;8.45;46.08
59272;BME280;45043;51.068;7.026;2023-04-09T08:08:53;101331.78;;;8.73;46.15
59272;BME280;45043;51.068;7.026;2023-04-09T08:11:54;101336.63;;;9.02;45.60
59272;BME280;45043;51.068;7.026;2023-04-09T08:14:55;101329.97;;;9.15;44.43
59272;BME280;45043;51.068;7.026;2023-04-09T08:17:55;101327.97;;;8.92;44.42
59272;BME280;45043;51.068;7.026;2023-04-09T08:20:56;101326.00;;;8.94;44.08
59272;BME280;45043;51.068;7.026;2023-04-09T08:23:57;101325.00;;;8.95;43.92
59272;BME280;45043;51.068;7.026;2023-04-09T08:27:00;101322.19;;;8.80;43.77
59272;BME280;45043;51.068;7.026;2023-04-09T08:30:01;101335.94;;;8.84;43.87
59272;BME280;45043;51.068;7.026;2023-04-09T08:33:02;101331.81;;;8.98;43.47
59272;BME280;45043;51.068;7.026;2023-04-09T08:36:07;101327.16;;;9.16;43.18
59272;BME280;45043;51.068;7.026;2023-04-09T08:39:07;101325.16;;;9.35;43.14
59272;BME280;45043;51.068;7.026;2023-04-09T08:42:08;101320.53;;;9.37;41.69
59272;BME280;45043;51.068;7.026;2023-04-09T08:45:12;101329.31;;;9.21;41.59
59272;BME280;45043;51.068;7.026;2023-04-09T08:48:13;101322.84;;;9.32;41.47
59272;BME280;45043;51.068;7.026;2023-04-09T08:51:18;101322.84;;;9.32;41.06
59272;BME280;45043;51.068;7.026;2023-04-09T08:54:20;101320.53;;;9.28;42.12
59272;BME280;45043;51.068;7.026;2023-04-09T08:57:20;101324.47;;;9.49;41.51
59272;BME280;45043;51.068;7.026;2023-04-09T09:00:20;101320.19;;;9.56;42.42
59272;BME280;45043;51.068;7.026;2023-04-09T09:03:21;101315.50;;;9.74;42.19
59272;BME280;45043;51.068;7.026;2023-04-09T09:06:26;101303.31;;;9.96;41.10
59272;BME280;45043;51.068;7.026;2023-04-09T09:09:28;101321.13;;;9.80;39.67
59272;BME280;45043;51.068;7.026;2023-04-09T09:15:33;101313.50;;;9.76;38.03
59272;BME280;45043;51.068;7.026;2023-04-09T09:18:38;101323.41;;;9.91;38.77
59272;BME280;45043;51.068;7.026;2023-04-09T09:21:39;101311.81;;;9.92;37.83
59272;BME280;45043;51.068;7.026;2023-04-09T09:24:50;101310.78;;;9.93;37.51
59272;BME280;45043;51.068;7.026;2023-04-09T09:27:52;101310.19;;;9.74;37.68
59272;BME280;45043;51.068;7.026;2023-04-09T09:30:53;101309.88;;;9.69;38.37
59272;BME280;45043;51.068;7.026;2023-04-09T09:33:53;101307.03;;;9.71;38.76
59272;BME280;45043;51.068;7.026;2023-04-09T09:36:54;101302.22;;;9.74;38.72
59272;BME280;45043;51.068;7.026;2023-04-09T09:39:55;101303.72;;;9.77;38.42
59272;BME280;45043;51.068;7.026;2023-04-09T09:42:56;101311.84;;;9.75;37.64
59272;BME280;45043;51.068;7.026;2023-04-09T09:45:57;101297.56;;;9.85;37.48
59272;BME280;45043;51.068;7.026;2023-04-09T09:48:57;101294.72;;;9.86;37.56
59272;BME280;45043;51.068;7.026;2023-04-09T09:51:59;101307.88;;;9.80;36.98
59272;BME280;45043;51.068;7.026;2023-04-09T09:55:03;101292.88;;;9.87;37.02
59272;BME280;45043;51.068;7.026;2023-04-09T09:58:26;101283.91;;;9.96;36.33
59272;BME280;45043;51.068;7.026;2023-04-09T10:01:27;101280.44;;;9.95;36.63
59272;BME280;45043;51.068;7.026;2023-04-09T10:04:28;101286.47;;;10.12;36.93
59272;BME280;45043;51.068;7.026;2023-04-09T10:07:33;101286.47;;;10.12;36.64
59272;BME280;45043;51.068;7.026;2023-04-09T10:10:33;101286.38;;;10.06;36.55
59272;BME280;45043;51.068;7.026;2023-04-09T10:13:58;101279.94;;;9.92;36.63
59272;BME280;45043;51.068;7.026;2023-04-09T10:16:59;101277.78;;;9.95;36.70
59272;BME280;45043;51.068;7.026;2023-04-09T10:20:14;101270.94;;;10.01;36.64
59272;BME280;45043;51.068;7.026;2023-04-09T10:23:35;101276.22;;;10.09;36.39
59272;BME280;45043;51.068;7.026;2023-04-09T10:26:40;101271.91;;;10.08;36.68
59272;BME280;45043;51.068;7.026;2023-04-09T10:29:48;101267.13;;;10.04;37.08
59272;BME280;45043;51.068;7.026;2023-04-09T10:32:49;101269.28;;;10.00;37.40
59272;BME280;45043;51.068;7.026;2023-04-09T10:35:50;101274.75;;;10.07;36.95
59272;BME280;45043;51.068;7.026;2023-04-09T10:38:51;101269.25;;;10.08;37.04
59272;BME280;45043;51.068;7.026;2023-04-09T10:41:52;101270.16;;;10.23;36.65
59272;BME280;45043;51.068;7.026;2023-04-09T10:45:11;101267.69;;;10.22;36.39
59272;BME280;45043;51.068;7.026;2023-04-09T10:48:13;101265.16;;;10.29;36.52
59272;BME280;45043;51.068;7.026;2023-04-09T10:51:18;101252.84;;;10.36;36.50
59272;BME280;45043;51.068;7.026;2023-04-09T10:57:34;101252.66;;;10.37;36.86
59272;BME280;45043;51.068;7.026;2023-04-09T11:00:40;101269.34;;;10.46;36.17
59272;BME280;45043;51.068;7.026;2023-04-09T11:03:43;101253.78;;;10.43;36.33
59272;BME280;45043;51.068;7.026;2023-04-09T11:06:44;101259.66;;;10.30;36.45
59272;BME280;45043;51.068;7.026;2023-04-09T11:09:46;101259.84;;;10.29;36.35
59272;BME280;45043;51.068;7.026;2023-04-09T11:12:47;101261.75;;;10.43;36.67
59272;BME280;45043;51.068;7.026;2023-04-09T11:15:48;101229.50;;;10.46;36.23
59272;BME280;45043;51.068;7.026;2023-04-09T11:18:48;101235.41;;;10.56;36.04
59272;BME280;45043;51.068;7.026;2023-04-09T11:21:49;101234.41;;;10.57;36.31
59272;BME280;45043;51.068;7.026;2023-04-09T11:24:49;101233.69;;;10.63;36.90
59272;BME280;45043;51.068;7.026;2023-04-09T11:27:50;101231.59;;;10.82;36.63
59272;BME280;45043;51.068;7.026;2023-04-09T11:30:50;101236.13;;;10.96;36.18
59272;BME280;45043;51.068;7.026;2023-04-09T11:33:51;101224.38;;;11.05;36.55
59272;BME280;45043;51.068;7.026;2023-04-09T11:36:51;101224.81;;;10.94;36.47
59272;BME280;45043;51.068;7.026;2023-04-09T11:39:52;101226.41;;;11.03;36.66
59272;BME280;45043;51.068;7.026;2023-04-09T11:42:55;101225.06;;;11.22;36.21
59272;BME280;45043;51.068;7.026;2023-04-09T11:45:56;101221.75;;;11.50;35.92
59272;BME280;45043;51.068;7.026;2023-04-09T11:48:56;101214.97;;;11.47;35.63
59272;BME280;45043;51.068;7.026;2023-04-09T11:51:57;101226.91;;;11.36;35.62
59272;BME280;45043;51.068;7.026;2023-04-09T11:55:01;101229.84;;;11.41;35.40
59272;BME280;45043;51.068;7.026;2023-04-09T11:58:02;101200.47;;;11.35;34.66
59272;BME280;45043;51.068;7.026;2023-04-09T12:01:03;101221.47;;;11.30;34.61
59272;BME280;45043;51.068;7.026;2023-04-09T12:04:03;101215.50;;;11.42;34.21
59272;BME280;45043;51.068;7.026;2023-04-09T12:07:07;101214.31;;;11.60;34.05
59272;BME280;45043;51.068;7.026;2023-04-09T12:10:09;101224.97;;;11.75;34.34
59272;BME280;45043;51.068;7.026;2023-04-09T12:13:10;101212.91;;;11.93;34.21
59272;BME280;45043;51.068;7.026;2023-04-09T12:16:13;101216.16;;;11.89;34.13
59272;BME280;45043;51.068;7.026;2023-04-09T12:19:18;101205.50;;;11.89;34.02
59272;BME280;45043;51.068;7.026;2023-04-09T12:22:19;101203.41;;;11.84;33.71
59272;BME280;45043;51.068;7.026;2023-04-09T12:25:20;101202.78;;;12.04;33.38
59272;BME280;45043;51.068;7.026;2023-04-09T12:28:20;101201.88;;;12.33;32.63
59272;BME280;45043;51.068;7.026;2023-04-09T12:31:21;101199.72;;;12.43;32.44
59272;BME280;45043;51.068;7.026;2023-04-09T12:34:21;101202.38;;;12.43;32.94
59272;BME280;45043;51.068;7.026;2023-04-09T12:37:22;101195.66;;;12.47;33.00
59272;BME280;45043;51.068;7.026;2023-04-09T12:40:22;101194.63;;;12.70;32.76
59272;BME280;45043;51.068;7.026;2023-04-09T12:43:23;101205.22;;;12.63;32.26
59272;BME280;45043;51.068;7.026;2023-04-09T12:46:23;101198.19;;;12.34;32.28
59272;BME280;45043;51.068;7.026;2023-04-09T12:49:23;101203.19;;;12.22;32.45
59272;BME280;45043;51.068;7.026;2023-04-09T12:52:24;101203.44;;;12.27;32.18
59272;BME280;45043;51.068;7.026;2023-04-09T12:55:25;101204.69;;;12.31;32.30
59272;BME280;45043;51.068;7.026;2023-04-09T12:58:25;101193.72;;;12.20;32.29
59272;BME280;45043;51.068;7.026;2023-04-09T13:01:26;101204.31;;;12.13;32.32
59272;BME280;45043;51.068;7.026;2023-04-09T13:04:26;101199.19;;;12.33;32.14
59272;BME280;45043;51.068;7.026;2023-04-09T13:07:27;101177.28;;;12.59;31.55
59272;BME280;45043;51.068;7.026;2023-04-09T13:10:29;101196.53;;;12.76;30.81
59272;BME280;45043;51.068;7.026;2023-04-09T13:13:30;101181.41;;;12.83;31.22
59272;BME280;45043;51.068;7.026;2023-04-09T13:16:31;101180.53;;;12.76;30.97
59272;BME280;45043;51.068;7.026;2023-04-09T13:19:32;101179.88;;;12.74;31.21
59272;BME280;45043;51.068;7.026;2023-04-09T13:22:32;101179.53;;;12.77;31.37
59272;BME280;45043;51.068;7.026;2023-04-09T13:25:33;101179.59;;;12.69;31.93
59272;BME280;45043;51.068;7.026;2023-04-09T13:28:33;101192.66;;;12.78;31.24
59272;BME280;45043;51.068;7.026;2023-04-09T13:31:35;101186.59;;;12.91;31.19
59272;BME280;45043;51.068;7.026;2023-04-09T13:34:38;101181.59;;;12.81;30.79
59272;BME280;45043;51.068;7.026;2023-04-09T13:37:38;101177.75;;;12.41;31.49
59272;BME280;45043;51.068;7.026;2023-04-09T13:40:39;101182.56;;;12.31;31.43
59272;BME280;45043;51.068;7.026;2023-04-09T13:43:39;101173.63;;;12.38;31.67
59272;BME280;45043;51.068;7.026;2023-04-09T13:46:40;101173.59;;;12.32;31.87
59272;BME280;45043;51.068;7.026;2023-04-09T13:49:41;101170.28;;;12.30;31.75
59272;BME280;45043;51.068;7.026;2023-04-09T13:52:42;101166.84;;;12.14;32.49
59272;BME280;45043;51.068;7.026;2023-04-09T13:55:42;101174.41;;;12.32;32.13
59272;BME280;45043;51.068;7.026;2023-04-09T13:58:43;101166.34;;;12.47;31.89
59272;BME280;45043;51.068;7.026;2023-04-09T14:01:44;101162.78;;;12.40;31.96
59272;BME280;45043;51.068;7.026;2023-04-09T14:04:45;101157.09;;;12.43;32.01
59272;BME280;45043;51.068;7.026;2023-04-09T14:07:45;101165.53;;;12.53;31.50
59272;BME280;45043;51.068;7.026;2023-04-09T14:10:46;101150.66;;;12.59;31.71
59272;BME280;45043;51.068;7.026;2023-04-09T14:13:46;101155.31;;;12.50;31.41
59272;BME280;45043;51.068;7.026;2023-04-09T14:16:47;101158.38;;;12.54;31.32
59272;BME280;45043;51.068;7.026;2023-04-09T14:19:49;101152.50;;;12.58;31.50
59272;BME280;45043;51.068;7.026;2023-04-09T14:22:49;101152.41;;;12.73;31.62
59272;BME280;45043;51.068;7.026;2023-04-09T14:25:50;101144.47;;;12.80;31.57
59272;BME280;45043;51.068;7.026;2023-04-09T14:28:52;101129.56;;;12.92;31.71
59272;BME280;45043;51.068;7.026;2023-04-09T14:31:53;101132.38;;;13.19;30.79
59272;BME280;45043;51.068;7.026;2023-04-09T14:34:53;101121.59;;;14.28;29.76
59272;BME280;45043;51.068;7.026;2023-04-09T14:37:54;101124.13;;;15.34;28.31
59272;BME280;45043;51.068;7.026;2023-04-09T14:40:54;101121.13;;;15.17;28.49
59272;BME280;45043;51.068;7.026;2023-04-09T14:43:55;101120.16;;;14.85;28.34
59272;BME280;45043;51.068;7.026;2023-04-09T14:46:55;101120.41;;;14.64;28.70
59272;BME280;45043;51.068;7.026;2023-04-09T14:49:56;101113.19;;;14.51;28.91
59272;BME280;45043;51.068;7.026;2023-04-09T14:52:57;101122.66;;;14.40;29.26
59272;BME280;45043;51.068;7.026;2023-04-09T14:55:57;101121.22;;;14.71;29.36
59272;BME280;45043;51.068;7.026;2023-04-09T14:58:58;101123.69;;;14.66;29.63
59272;BME280;45043;51.068;7.026;2023-04-09T15:01:59;101123.44;;;14.87;29.30
59272;BME280;45043;51.068;7.026;2023-04-09T15:05:00;101126.13;;;15.90;28.02
59272;BME280;45043;51.068;7.026;2023-04-09T15:08:01;101117.50;;;17.07;27.28
59272;BME280;45043;51.068;7.026;2023-04-09T15:11:01;101111.19;;;18.10;24.95
59272;BME280;45043;51.068;7.026;2023-04-09T15:14:01;101102.69;;;18.83;24.74
59272;BME280;45043;51.068;7.026;2023-04-09T15:17:02;101090.69;;;19.26;24.18
59272;BME280;45043;51.068;7.026;2023-04-09T15:20:03;101098.19;;;19.81;23.33
59272;BME280;45043;51.068;7.026;2023-04-09T15:23:03;101101.25;;;19.56;23.85
59272;BME280;45043;51.068;7.026;2023-04-09T15:26:04;101103.44;;;18.67;24.40
59272;BME280;45043;51.068;7.026;2023-04-09T15:29:06;101112.91;;;17.62;24.48
59272;BME280;45043;51.068;7.026;2023-04-09T15:32:07;101110.31;;;16.64;25.48
59272;BME280;45043;51.068;7.026;2023-04-09T15:35:07;101114.78;;;16.20;26.47
59272;BME280;45043;51.068;7.026;2023-04-09T15:38:08;101112.03;;;16.33;26.20
59272;BME280;45043;51.068;7.026;2023-04-09T15:41:08;101114.69;;;17.20;25.15
59272;BME280;45043;51.068;7.026;2023-04-09T15:44:09;101115.63;;;18.70;24.54
59272;BME280;45043;51.068;7.026;2023-04-09T15:47:10;101103.06;;;19.27;23.41
59272;BME280;45043;51.068;7.026;2023-04-09T15:50:11;101112.69;;;18.71;23.62
59272;BME280;45043;51.068;7.026;2023-04-09T15:53:13;101104.22;;;19.72;22.39
59272;BME280;45043;51.068;7.026;2023-04-09T15:56:14;101095.84;;;19.85;22.59
59272;BME280;45043;51.068;7.026;2023-04-09T15:59:14;101077.91;;;18.34;23.36
59272;BME280;45043;51.068;7.026;2023-04-09T16:02:15;101087.69;;;17.33;24.22
59272;BME280;45043;51.068;7.026;2023-04-09T16:05:15;101095.16;;;19.09;22.90
59272;BME280;45043;51.068;7.026;2023-04-09T16:08:16;101097.75;;;20.91;20.52
59272;BME280;45043;51.068;7.026;2023-04-09T16:11:16;101092.88;;;21.91;19.85
59272;BME280;45043;51.068;7.026;2023-04-09T16:14:17;101097.50;;;23.12;18.46
59272;BME280;45043;51.068;7.026;2023-04-09T16:17:18;101099.25;;;23.54;17.98